Time;durP1;ratioP1;P1;durP2;ratioP2;P2;SDS_P1;SDS_P2;PMS_P1;PMS_P2;Temp;Humidity;BMP_temperature;BMP_pressure;BME280_temperature;BME280_humidity;BME280_pressure;Samples;Min_cycle;Max_cycle;Signal;HPM_P1;HPM_P2
2023/03/30 00:00:15;;;;;;;14.85;3.53;;;;;;;9.49;100.00;92808.56;2495342;23;20038;-84
2023/03/30 00:01:16;;;;;;;17.73;3.53;;;;;;;9.47;100.00;92808.22;2488420;23;20008;-85
2023/03/30 00:02:21;;;;;;;16.33;3.05;;;;;;;9.51;100.00;92801.63;2508074;23;20608;-84
2023/03/30 00:03:22;;;;;;;13.02;2.78;;;;;;;9.50;100.00;92810.81;2519295;23;20017;-84
2023/03/30 00:04:25;;;;;;;26.70;3.15;;;;;;;9.56;100.00;92809.13;2507477;23;20034;-84
2023/03/30 00:05:27;;;;;;;19.35;3.13;;;;;;;9.69;100.00;92806.56;2485124;23;20018;-85
2023/03/30 00:06:28;;;;;;;18.15;3.83;;;;;;;9.68;100.00;92821.06;2494950;23;20011;-84
2023/03/30 00:07:29;;;;;;;24.52;3.63;;;;;;;9.59;100.00;92816.31;2507416;23;20002;-83
2023/03/30 00:08:33;;;;;;;21.55;3.25;;;;;;;9.62;100.00;92811.34;2507419;23;20011;-84
2023/03/30 00:09:42;;;;;;;11.38;3.10;;;;;;;9.57;100.00;92813.34;2519850;23;20038;-85
2023/03/30 00:10:46;;;;;;;17.02;3.10;;;;;;;9.54;100.00;92816.06;2519213;23;20036;-84
2023/03/30 00:11:48;;;;;;;22.48;3.97;;;;;;;9.56;100.00;92814.47;2519147;23;20382;-84
2023/03/30 00:12:49;;;;;;;12.63;2.95;;;;;;;9.60;100.00;92803.72;2507317;23;20007;-85
2023/03/30 00:13:51;;;;;;;18.02;3.10;;;;;;;9.59;100.00;92810.25;2507415;23;20033;-84
2023/03/30 00:14:52;;;;;;;22.52;3.97;;;;;;;9.52;100.00;92805.06;2495571;23;20438;-84
2023/03/30 00:15:53;;;;;;;19.50;3.40;;;;;;;9.48;100.00;92802.50;2495438;23;20007;-84
2023/03/30 00:16:54;;;;;;;21.70;3.85;;;;;;;9.46;100.00;92794.13;2516577;23;20041;-84
2023/03/30 00:17:55;;;;;;;15.35;3.00;;;;;;;9.55;100.00;92802.31;2519546;23;20600;-84
2023/03/30 00:18:56;;;;;;;18.85;3.42;;;;;;;9.49;100.00;92789.91;2519161;23;20021;-84
2023/03/30 00:20:00;;;;;;;27.20;3.58;;;;;;;9.44;100.00;92791.16;2519704;23;20029;-84
2023/03/30 00:21:03;;;;;;;17.83;2.90;;;;;;;9.42;100.00;92793.47;2508065;23;20422;-84
2023/03/30 00:22:06;;;;;;;19.00;3.05;;;;;;;9.38;100.00;92795.47;2496403;23;20094;-85
2023/03/30 00:23:07;;;;;;;20.63;3.00;;;;;;;9.40;100.00;92793.16;2496663;23;20007;-84
2023/03/30 00:24:08;;;;;;;12.90;2.65;;;;;;;9.39;100.00;92796.94;2507179;23;20517;-83
2023/03/30 00:25:15;;;;;;;20.08;3.50;;;;;;;9.39;100.00;92790.88;2519152;23;20006;-84
2023/03/30 00:26:16;;;;;;;21.08;3.60;;;;;;;9.51;100.00;92784.88;2509211;23;20007;-84
2023/03/30 00:27:18;;;;;;;16.98;3.65;;;;;;;9.53;100.00;92777.22;2507580;23;20587;-85
2023/03/30 00:28:19;;;;;;;16.50;3.22;;;;;;;9.57;100.00;92777.91;2507650;23;20010;-82
2023/03/30 00:29:21;;;;;;;13.98;3.03;;;;;;;9.48;100.00;92778.47;2506839;23;20009;-84
2023/03/30 00:30:22;;;;;;;29.85;3.67;;;;;;;9.44;100.00;92788.47;2506838;23;20435;-84
2023/03/30 00:31:23;;;;;;;15.77;3.30;;;;;;;9.45;100.00;92776.63;2506784;23;20007;-84
2023/03/30 00:32:24;;;;;;;18.30;3.53;;;;;;;9.36;100.00;92778.38;2507014;23;20107;-84
2023/03/30 00:33:26;;;;;;;13.98;3.05;;;;;;;9.38;100.00;92774.13;2507676;23;20232;-84
2023/03/30 00:34:27;;;;;;;22.55;3.50;;;;;;;9.40;100.00;92771.81;2508090;23;20011;-84
2023/03/30 00:35:29;;;;;;;18.35;3.58;;;;;;;9.37;100.00;92764.63;2507602;23;20010;-84
2023/03/30 00:36:36;;;;;;;17.00;3.05;;;;;;;9.41;100.00;92764.53;2506853;23;20414;-83
2023/03/30 00:37:37;;;;;;;15.70;3.40;;;;;;;9.32;100.00;92765.13;2520047;23;20013;-83
2023/03/30 00:38:39;;;;;;;17.77;3.15;;;;;;;9.40;100.00;92755.78;2519442;23;20320;-84
2023/03/30 00:39:40;;;;;;;21.58;3.72;;;;;;;9.56;100.00;92761.13;2519126;23;20034;-83
2023/03/30 00:40:41;;;;;;;16.17;2.85;;;;;;;9.50;100.00;92754.78;2519390;23;20528;-83
2023/03/30 00:41:42;;;;;;;14.68;3.08;;;;;;;9.42;100.00;92760.72;2507696;23;20022;-83
2023/03/30 00:42:43;;;;;;;14.25;3.20;;;;;;;9.39;100.00;92759.59;2519004;23;20024;-84
2023/03/30 00:43:56;;;;;;;23.48;3.90;;;;;;;9.39;100.00;92756.19;2495666;23;20007;-84
2023/03/30 00:45:11;;;;;;;20.48;3.72;;;;;;;9.35;100.00;92761.63;2512018;23;20103;-84
2023/03/30 00:46:12;;;;;;;17.23;3.22;;;;;;;9.37;100.00;92758.53;2522338;23;20065;-84
2023/03/30 00:47:15;;;;;;;19.67;4.25;;;;;;;9.36;100.00;92749.78;2518998;23;20002;-83
2023/03/30 00:48:27;;;;;;;23.65;3.67;;;;;;;9.32;100.00;92752.53;2531641;23;20036;-84
2023/03/30 00:49:30;;;;;;;28.08;4.28;;;;;;;9.34;100.00;92754.78;2530625;23;20539;-85
2023/03/30 00:50:42;;;;;;;28.10;3.70;;;;;;;9.36;100.00;92754.38;2507012;23;20002;-84
2023/03/30 00:51:43;;;;;;;28.50;3.72;;;;;;;9.33;100.00;92755.94;2499636;23;20011;-83
2023/03/30 00:52:45;;;;;;;26.80;4.28;;;;;;;9.37;100.00;92758.53;2495383;23;20011;-84
2023/03/30 00:53:50;;;;;;;17.73;3.30;;;;;;;9.51;100.00;92747.53;2507352;23;20014;-84
2023/03/30 00:54:54;;;;;;;19.80;3.25;;;;;;;9.55;100.00;92745.53;2519387;23;20437;-83
2023/03/30 00:55:57;;;;;;;23.02;4.13;;;;;;;9.52;100.00;92749.78;2496469;23;20003;-84
2023/03/30 00:56:58;;;;;;;18.80;3.50;;;;;;;9.46;100.00;92742.69;2507128;23;20007;-83
2023/03/30 00:58:08;;;;;;;17.20;3.17;;;;;;;9.47;100.00;92744.94;2518681;23;20013;-85
2023/03/30 00:59:10;;;;;;;;;;;;;;;9.48;100.00;92743.78;2498608;23;20312;-83
2023/03/30 01:00:28;;;;;;;17.58;3.60;;;;;;;9.50;100.00;92746.78;2518351;23;19909;-84
2023/03/30 01:01:37;;;;;;;23.85;4.07;;;;;;;9.46;100.00;92743.44;2522440;23;20006;-84
2023/03/30 01:03:59;;;;;;;21.85;3.80;;;;;;;9.53;100.00;92753.97;2533955;23;20337;-84
2023/03/30 01:05:01;;;;;;;22.10;3.53;;;;;;;9.58;100.00;92766.81;2519349;23;20509;-83
2023/03/30 01:06:06;;;;;;;18.38;3.03;;;;;;;9.66;100.00;92758.59;2508034;23;20434;-84
2023/03/30 01:07:11;;;;;;;22.02;3.88;;;;;;;9.65;100.00;92760.53;2530828;23;20010;-83
2023/03/30 01:08:15;;;;;;;13.63;3.58;;;;;;;9.58;100.00;92756.13;2507989;23;20017;-84
2023/03/30 01:09:17;;;;;;;20.42;3.63;;;;;;;9.52;100.00;92765.03;2495487;23;20015;-84
2023/03/30 01:10:26;;;;;;;21.27;4.18;;;;;;;9.54;100.00;92762.72;2508054;23;20034;-84
2023/03/30 01:11:33;;;;;;;12.55;3.15;;;;;;;9.54;100.00;92768.78;2520659;23;20041;-84
2023/03/30 01:12:35;;;;;;;16.27;3.28;;;;;;;9.55;100.00;92766.88;2508353;23;20498;-83
2023/03/30 01:13:44;;;;;;;20.63;3.70;;;;;;;9.58;100.00;92766.06;2518543;23;20113;-83
2023/03/30 01:14:46;;;;;;;22.27;4.00;;;;;;;9.53;100.00;92769.97;2519463;23;20006;-84
2023/03/30 01:16:11;;;;;;;20.15;3.65;;;;;;;9.42;100.00;92764.13;2531035;23;20476;-83
2023/03/30 01:17:30;;;;;;;19.95;3.45;;;;;;;9.38;100.00;92776.78;2507068;23;20022;-84
2023/03/30 01:19:15;;;;;;;23.02;3.78;;;;;;;9.39;100.00;92778.28;2490657;23;20012;-84
2023/03/30 01:20:37;;;;;;;20.80;3.47;;;;;;;9.35;100.00;92780.31;2503576;23;20022;-84
2023/03/30 01:22:21;;;;;;;23.60;4.78;;;;;;;9.40;100.00;92782.47;2511118;23;20014;-85
2023/03/30 01:23:57;;;;;;;27.92;3.35;;;;;;;9.45;100.00;92794.56;2507057;23;20006;-83
2023/03/30 01:25:23;;;;;;;22.20;3.45;;;;;;;9.48;100.00;92791.81;2506848;23;20017;-84
2023/03/30 01:26:59;;;;;;;17.00;3.38;;;;;;;9.47;100.00;92808.22;2512471;23;20089;-83
2023/03/30 01:28:18;;;;;;;13.20;3.90;;;;;;;9.48;100.00;92813.16;2506100;23;20014;-84
2023/03/30 01:30:02;;;;;;;33.83;4.15;;;;;;;9.41;100.00;92820.56;2521950;23;20093;-84
2023/03/30 01:31:31;;;;;;;29.13;4.00;;;;;;;9.35;100.00;92814.97;2516447;23;20006;-85
2023/03/30 01:32:53;;;;;;;20.88;4.35;;;;;;;9.29;100.00;92825.38;2512536;23;20458;-84
2023/03/30 01:34:28;;;;;;;28.77;4.43;;;;;;;9.21;100.00;92841.94;2509971;23;20002;-84
2023/03/30 01:35:51;;;;;;;20.02;4.30;;;;;;;9.16;100.00;92829.84;2501763;23;20018;-84
2023/03/30 01:37:17;;;;;;;19.23;4.00;;;;;;;9.06;100.00;92823.56;2492056;23;20081;-84
2023/03/30 01:39:08;;;;;;;22.85;4.47;;;;;;;9.00;100.00;92829.78;2493105;23;20383;-83
2023/03/30 01:40:42;;;;;;;24.92;4.15;;;;;;;8.98;100.00;92840.88;2457092;24;20008;-83
2023/03/30 01:41:59;;;;;;;22.45;4.18;;;;;;;8.99;100.00;92844.28;2485614;23;20011;-84
2023/03/30 01:43:28;;;;;;;26.05;4.28;;;;;;;8.91;100.00;92842.91;2498478;23;20094;-84
2023/03/30 01:44:42;;;;;;;21.50;5.20;;;;;;;8.79;100.00;92844.31;2506360;23;20013;-83
2023/03/30 01:45:57;;;;;;;27.65;5.18;;;;;;;8.79;100.00;92844.31;2509679;23;20392;-84
2023/03/30 01:47:15;;;;;;;24.10;4.00;;;;;;;8.80;100.00;92838.56;2506023;23;20011;-83
2023/03/30 01:48:36;;;;;;;29.77;4.97;;;;;;;8.94;100.00;92837.53;2489473;23;20000;-83
2023/03/30 01:49:56;;;;;;;28.50;5.60;;;;;;;8.95;100.00;92847.03;2514551;23;20464;-84
2023/03/30 01:51:10;;;;;;;22.77;4.32;;;;;;;8.93;100.00;92841.34;2506936;23;20122;-83
2023/03/30 01:52:30;;;;;;;25.20;4.25;;;;;;;8.88;100.00;92836.50;2500098;23;20423;-84
2023/03/30 01:54:07;;;;;;;37.35;5.45;;;;;;;8.81;100.00;92832.06;2498211;23;20094;-83
2023/03/30 01:55:17;;;;;;;27.00;4.03;;;;;;;8.78;100.00;92832.91;2513798;23;20014;-83
2023/03/30 01:56:46;;;;;;;34.70;6.30;;;;;;;8.83;100.00;92823.69;2506922;23;20375;-84
2023/03/30 01:57:57;;;;;;;26.95;4.90;;;;;;;8.80;100.00;92817.25;2524214;23;20008;-83
2023/03/30 01:59:09;;;;;;;30.48;4.65;;;;;;;8.80;100.00;92827.16;2518336;23;20526;-84
2023/03/30 02:00:16;;;;;;;32.60;4.60;;;;;;;8.83;100.00;92827.09;2497072;23;20007;-84
2023/03/30 02:01:20;;;;;;;23.25;4.10;;;;;;;8.77;100.00;92825.31;2485494;23;20521;-83
2023/03/30 02:02:27;;;;;;;37.63;5.15;;;;;;;8.71;100.00;92826.94;2495718;23;20039;-84
2023/03/30 02:03:35;;;;;;;33.10;4.43;;;;;;;8.70;100.00;92834.19;2508891;23;20007;-83
2023/03/30 02:04:39;;;;;;;17.10;4.18;;;;;;;8.68;100.00;92830.44;2519227;23;20058;-85
2023/03/30 02:05:42;;;;;;;25.40;5.28;;;;;;;8.65;100.00;92828.56;2496041;23;20490;-83
2023/03/30 02:06:48;;;;;;;21.42;4.53;;;;;;;8.61;100.00;92828.66;2506744;23;20069;-85
2023/03/30 02:07:54;;;;;;;32.15;5.68;;;;;;;8.56;100.00;92832.56;2519423;23;20006;-83
2023/03/30 02:08:58;;;;;;;25.33;4.05;;;;;;;8.57;100.00;92830.66;2518348;23;20532;-84
2023/03/30 02:10:05;;;;;;;21.35;4.25;;;;;;;8.50;100.00;92826.19;2507573;23;20343;-84
2023/03/30 02:11:08;;;;;;;25.85;4.18;;;;;;;8.50;100.00;92815.53;2496435;23;20043;-83
2023/03/30 02:12:12;;;;;;;23.83;3.90;;;;;;;8.49;100.00;92805.28;2484283;23;20007;-84
2023/03/30 02:13:17;;;;;;;32.33;3.88;;;;;;;8.47;100.00;92800.38;2484098;23;20561;-85
2023/03/30 02:14:24;;;;;;;27.23;4.55;;;;;;;8.52;100.00;92802.56;2484615;23;20638;-84
2023/03/30 02:15:36;;;;;;;22.05;4.00;;;;;;;8.54;100.00;92794.91;2497964;23;20015;-83
2023/03/30 02:16:44;;;;;;;23.08;4.45;;;;;;;8.55;100.00;92795.66;2507001;23;20018;-83
2023/03/30 02:17:47;;;;;;;23.05;4.30;;;;;;;8.48;100.00;92796.56;2508473;23;20415;-83
2023/03/30 02:18:48;;;;;;;22.13;4.43;;;;;;;8.49;100.00;92787.41;2494848;23;20516;-84
2023/03/30 02:19:50;;;;;;;25.90;4.38;;;;;;;8.48;100.00;92772.59;2482905;23;20478;-84
2023/03/30 02:20:51;;;;;;;19.23;3.97;;;;;;;8.44;100.00;92779.91;2483903;23;20015;-84
2023/03/30 02:21:53;;;;;;;19.65;4.35;;;;;;;8.45;100.00;92775.31;2483451;23;20007;-84
2023/03/30 02:22:56;;;;;;;14.07;3.35;;;;;;;8.46;100.00;92774.16;2483822;23;20371;-84
2023/03/30 02:23:59;;;;;;;13.02;3.45;;;;;;;8.47;100.00;92773.75;2507342;23;20395;-83
2023/03/30 02:25:01;;;;;;;17.52;3.60;;;;;;;8.56;100.00;92771.28;2529984;23;20009;-84
2023/03/30 02:26:03;;;;;;;23.73;3.67;;;;;;;8.55;100.00;92769.03;2518320;23;20074;-84
2023/03/30 02:27:05;;;;;;;20.30;4.15;;;;;;;8.52;100.00;92777.84;2506977;23;20002;-84
2023/03/30 02:28:08;;;;;;;20.73;3.40;;;;;;;8.52;100.00;92775.19;2518426;23;20398;-83
2023/03/30 02:29:09;;;;;;;18.55;4.22;;;;;;;8.42;100.00;92768.88;2530826;23;20527;-84
2023/03/30 02:30:11;;;;;;;16.63;3.70;;;;;;;8.39;100.00;92779.63;2518168;23;20006;-84
2023/03/30 02:31:14;;;;;;;17.60;3.40;;;;;;;8.40;100.00;92773.13;2507176;23;20038;-83
2023/03/30 02:32:23;;;;;;;14.23;3.33;;;;;;;8.40;100.00;92768.56;2507613;23;19999;-83
2023/03/30 02:33:35;;;;;;;20.55;3.38;;;;;;;8.41;100.00;92771.97;2496041;23;20017;-85
2023/03/30 02:35:12;;;;;;;15.32;3.08;;;;;;;8.41;100.00;92778.03;2499429;23;20046;-84
2023/03/30 02:36:51;;;;;;;16.33;3.25;;;;;;;8.39;100.00;92767.06;2526098;23;20006;-84
2023/03/30 02:38:29;;;;;;;17.00;3.00;;;;;;;8.39;100.00;92763.66;2506881;23;20007;-85
2023/03/30 02:39:51;;;;;;;18.42;3.30;;;;;;;8.37;100.00;92758.72;2513164;23;20089;-84
2023/03/30 02:41:11;;;;;;;16.63;3.75;;;;;;;8.33;100.00;92758.00;2498977;23;20403;-85
2023/03/30 02:42:20;;;;;;;17.70;3.20;;;;;;;8.33;100.00;92752.66;2510423;23;20015;-86
2023/03/30 02:43:40;;;;;;;16.33;3.40;;;;;;;8.32;100.00;92754.59;2506523;23;20434;-84
2023/03/30 02:45:07;;;;;;;18.25;3.17;;;;;;;8.26;100.00;92766.13;2491193;23;20026;-84
2023/03/30 02:46:23;;;;;;;20.02;2.90;;;;;;;8.23;100.00;92759.72;2493639;23;20349;-83
2023/03/30 02:48:12;;;;;;;16.75;3.75;;;;;;;8.29;100.00;92758.06;2488932;23;20012;-84
2023/03/30 02:49:28;;;;;;;12.77;2.92;;;;;;;8.38;100.00;92759.47;2494172;23;20014;-84
2023/03/30 02:50:45;;;;;;;14.93;3.13;;;;;;;8.39;100.00;92753.75;2500910;23;20059;-85
2023/03/30 02:51:55;;;;;;;12.05;2.92;;;;;;;8.44;100.00;92744.53;2496949;23;20012;-84
2023/03/30 02:53:05;;;;;;;12.48;3.40;;;;;;;8.43;100.00;92735.00;2497560;23;20011;-83
2023/03/30 02:54:09;;;;;;;;;;;;;;;8.40;100.00;92725.94;2521467;23;20073;-84
2023/03/30 02:55:35;;;;;;;13.70;2.85;;;;;;;8.42;100.00;92725.53;2507063;23;19919;-83
2023/03/30 02:56:47;;;;;;;11.50;2.58;;;;;;;8.39;100.00;92719.13;2504639;23;20025;-84
2023/03/30 02:58:43;;;;;;;12.80;2.28;;;;;;;8.44;100.00;92710.66;2508952;23;20086;-84
2023/03/30 02:59:51;;;;;;;9.93;3.55;;;;;;;8.40;100.00;92703.88;2514516;23;20051;-84
2023/03/30 03:01:17;;;;;;;13.98;2.80;;;;;;;8.39;100.00;92695.16;2508402;23;20346;-84
2023/03/30 03:02:32;;;;;;;10.10;2.63;;;;;;;8.32;100.00;92703.25;2523413;23;20339;-85
2023/03/30 03:03:37;;;;;;;13.98;2.78;;;;;;;8.33;100.00;92705.50;2506215;23;20010;-85
2023/03/30 03:04:42;;;;;;;14.02;2.95;;;;;;;8.34;100.00;92695.63;2496598;23;20459;-84
2023/03/30 03:05:45;;;;;;;11.55;2.90;;;;;;;8.30;100.00;92692.28;2507403;23;20011;-85
2023/03/30 03:06:46;;;;;;;15.73;3.13;;;;;;;8.28;100.00;92690.00;2518215;23;20002;-85
2023/03/30 03:07:49;;;;;;;14.70;3.15;;;;;;;8.44;100.00;92692.00;2518697;23;20065;-84
2023/03/30 03:08:54;;;;;;;14.93;3.28;;;;;;;8.39;100.00;92678.44;2518202;23;20431;-84
2023/03/30 03:09:57;;;;;;;9.40;2.67;;;;;;;8.35;100.00;92677.72;2506735;23;20444;-85
2023/03/30 03:10:58;;;;;;;14.30;3.47;;;;;;;8.35;100.00;92683.78;2506533;23;20010;-84
2023/03/30 03:11:59;;;;;;;13.68;2.67;;;;;;;8.29;100.00;92678.19;2519001;23;20003;-84
2023/03/30 03:13:00;;;;;;;14.98;3.15;;;;;;;8.32;100.00;92673.94;2518478;23;20037;-84
2023/03/30 03:14:01;;;;;;;21.35;3.67;;;;;;;8.29;100.00;92653.47;2519049;23;20013;-84
2023/03/30 03:15:04;;;;;;;17.33;3.53;;;;;;;8.24;100.00;92653.97;2519583;23;20068;-84
2023/03/30 03:16:09;;;;;;;12.77;2.92;;;;;;;8.27;100.00;92651.22;2508317;23;20011;-84
2023/03/30 03:17:12;;;;;;;13.20;2.92;;;;;;;8.24;100.00;92656.63;2508023;23;20022;-84
2023/03/30 03:18:15;;;;;;;13.27;2.85;;;;;;;8.24;100.00;92653.97;2495101;23;20030;-84
2023/03/30 03:19:16;;;;;;;11.93;2.90;;;;;;;8.15;100.00;92648.44;2496477;23;20433;-84
2023/03/30 03:20:18;;;;;;;11.70;3.45;;;;;;;8.18;100.00;92652.94;2496280;23;20008;-84
2023/03/30 03:21:19;;;;;;;10.98;3.22;;;;;;;8.24;100.00;92652.03;2519973;23;20006;-85
2023/03/30 03:22:20;;;;;;;12.05;2.88;;;;;;;8.22;100.00;92648.31;2519202;23;20067;-84
2023/03/30 03:23:21;;;;;;;14.95;3.17;;;;;;;8.20;100.00;92651.38;2507191;23;20014;-85
2023/03/30 03:24:22;;;;;;;18.00;3.47;;;;;;;8.21;100.00;92649.44;2495868;23;20007;-84
2023/03/30 03:25:23;;;;;;;18.05;3.90;;;;;;;8.21;100.00;92647.56;2520008;23;20026;-84
2023/03/30 03:26:25;;;;;;;16.33;3.42;;;;;;;8.20;100.00;92645.28;2519903;23;20006;-84
2023/03/30 03:27:27;;;;;;;11.95;2.78;;;;;;;8.22;100.00;92649.06;2496111;23;20448;-84
2023/03/30 03:28:30;;;;;;;15.10;3.25;;;;;;;8.34;100.00;92655.66;2495255;23;20122;-84
2023/03/30 03:29:31;;;;;;;15.60;3.00;;;;;;;8.29;100.00;92651.56;2495679;23;20003;-84
2023/03/30 03:30:32;;;;;;;20.02;3.92;;;;;;;8.27;100.00;92658.47;2508009;23;20433;-84
2023/03/30 03:31:33;;;;;;;16.70;3.28;;;;;;;8.23;100.00;92652.47;2520097;23;20339;-84
2023/03/30 03:32:34;;;;;;;19.05;3.33;;;;;;;8.25;100.00;92656.22;2519881;23;20010;-84
2023/03/30 03:33:35;;;;;;;17.95;3.50;;;;;;;8.26;100.00;92654.31;2519785;23;20422;-84
2023/03/30 03:34:36;;;;;;;14.88;3.78;;;;;;;8.25;100.00;92656.22;2507503;23;20017;-84
2023/03/30 03:35:38;;;;;;;12.75;2.92;;;;;;;8.25;100.00;92647.47;2507203;23;20486;-84
2023/03/30 03:36:39;;;;;;;14.02;3.47;;;;;;;8.25;100.00;92648.25;2519421;23;20033;-84
2023/03/30 03:37:40;;;;;;;13.65;3.38;;;;;;;8.26;100.00;92652.41;2520018;23;20056;-84
2023/03/30 03:38:41;;;;;;;13.48;3.25;;;;;;;8.26;100.00;92646.31;2507881;23;20430;-83
2023/03/30 03:39:42;;;;;;;16.88;3.78;;;;;;;8.28;100.00;92654.63;2494775;23;20007;-83
2023/03/30 03:40:48;;;;;;;20.48;3.97;;;;;;;8.26;100.00;92647.06;2495132;23;20359;-84
2023/03/30 03:41:49;;;;;;;13.60;2.72;;;;;;;8.26;100.00;92651.66;2496964;23;20011;-83
2023/03/30 03:42:50;;;;;;;19.92;3.65;;;;;;;8.27;100.00;92653.88;2495740;23;20008;-84
2023/03/30 03:43:51;;;;;;;20.15;3.55;;;;;;;8.45;100.00;92660.78;2496038;23;20011;-84
2023/03/30 03:44:52;;;;;;;16.13;3.38;;;;;;;8.50;100.00;92660.28;2495788;23;20014;-84
2023/03/30 03:45:54;;;;;;;15.05;3.38;;;;;;;8.49;100.00;92659.56;2507886;23;20002;-84
2023/03/30 03:46:55;;;;;;;13.30;2.75;;;;;;;8.58;100.00;92651.75;2519638;23;20014;-84
2023/03/30 03:47:56;;;;;;;16.92;3.78;;;;;;;8.54;100.00;92642.31;2519267;23;20035;-83
2023/03/30 03:48:57;;;;;;;14.77;3.85;;;;;;;8.54;100.00;92631.66;2507081;23;20050;-84
2023/03/30 03:49:59;;;;;;;19.88;4.50;;;;;;;8.57;100.00;92636.94;2507550;23;20313;-83
2023/03/30 03:51:01;;;;;;;16.40;3.92;;;;;;;8.70;100.00;92628.28;2519578;23;20029;-84
2023/03/30 03:52:02;;;;;;;13.02;3.70;;;;;;;8.67;100.00;92623.78;2496192;23;20205;-84
2023/03/30 03:53:03;;;;;;;22.80;3.58;;;;;;;8.61;100.00;92620.88;2495961;23;20490;-84
2023/03/30 03:54:04;;;;;;;16.25;3.35;;;;;;;8.62;100.00;92624.28;2519819;23;20003;-83
2023/03/30 03:55:06;;;;;;;12.30;3.13;;;;;;;8.58;100.00;92625.09;2496131;23;20390;-84
2023/03/30 03:56:07;;;;;;;16.58;3.35;;;;;;;8.56;100.00;92629.34;2495971;23;20078;-84
2023/03/30 03:57:08;;;;;;;18.23;3.78;;;;;;;8.63;100.00;92629.19;2507802;23;20482;-84
2023/03/30 03:58:09;;;;;;;11.63;3.63;;;;;;;8.56;100.00;92621.38;2507697;23;20010;-85
2023/03/30 03:59:10;;;;;;;16.35;3.67;;;;;;;8.65;100.00;92615.44;2495754;23;20003;-84
2023/03/30 04:00:15;;;;;;;14.68;3.35;;;;;;;8.64;100.00;92619.28;2507706;23;20003;-84
2023/03/30 04:01:16;;;;;;;18.75;4.05;;;;;;;8.58;100.00;92627.75;2507728;23;20013;-84
2023/03/30 04:02:17;;;;;;;20.10;3.67;;;;;;;8.54;100.00;92624.44;2495470;23;20008;-84
2023/03/30 04:03:18;;;;;;;11.80;2.80;;;;;;;8.51;100.00;92619.91;2508181;23;20358;-83
2023/03/30 04:04:19;;;;;;;20.48;3.90;;;;;;;8.48;100.00;92622.69;2519690;23;20013;-85
2023/03/30 04:05:20;;;;;;;19.95;4.00;;;;;;;8.46;100.00;92617.75;2519673;23;20382;-84
2023/03/30 04:06:22;;;;;;;17.85;3.42;;;;;;;8.43;100.00;92615.94;2495694;23;20007;-84
2023/03/30 04:07:24;;;;;;;17.08;3.40;;;;;;;8.39;100.00;92609.94;2495392;23;20017;-84
2023/03/30 04:08:25;;;;;;;22.85;3.78;;;;;;;8.48;100.00;92618.09;2495883;23;20011;-84
2023/03/30 04:09:26;;;;;;;11.93;3.40;;;;;;;8.49;100.00;92616.94;2495557;23;20035;-84
2023/03/30 04:10:27;;;;;;;21.58;3.45;;;;;;;8.45;100.00;92610.19;2495329;23;20003;-84
2023/03/30 04:11:28;;;;;;;17.55;3.28;;;;;;;8.42;100.00;92611.75;2506612;23;20323;-84
2023/03/30 04:12:30;;;;;;;17.55;3.90;;;;;;;8.45;100.00;92610.19;2507296;23;20011;-83
2023/03/30 04:13:30;;;;;;;17.23;4.82;;;;;;;8.45;100.00;92605.59;2519025;23;20403;-83
2023/03/30 04:14:33;;;;;;;19.08;4.07;;;;;;;8.43;100.00;92610.63;2519129;23;20002;-84
2023/03/30 04:15:35;;;;;;;19.70;4.97;;;;;;;8.58;100.00;92603.03;2507585;23;20014;-84
2023/03/30 04:16:36;;;;;;;18.08;5.05;;;;;;;8.77;100.00;92612.13;2507947;23;20027;-84
2023/03/30 04:17:37;;;;;;;23.55;5.97;;;;;;;8.69;100.00;92602.78;2506721;23;20007;-84
2023/03/30 04:18:40;;;;;;;22.05;5.43;;;;;;;8.78;100.00;92613.63;2507561;23;20007;-84
2023/03/30 04:19:41;;;;;;;17.27;4.03;;;;;;;8.98;100.00;92606.28;2519491;23;20446;-84
2023/03/30 04:20:42;;;;;;;18.67;3.40;;;;;;;9.01;100.00;92602.06;2519135;23;20013;-83
2023/03/30 04:21:48;;;;;;;20.17;5.70;;;;;;;8.88;100.00;92598.56;2495554;23;20004;-83
2023/03/30 04:22:52;;;;;;;13.70;4.32;;;;;;;8.80;100.00;92596.06;2497100;23;20003;-83
2023/03/30 04:23:55;;;;;;;15.07;3.97;;;;;;;8.67;100.00;92600.56;2508902;23;20007;-84
2023/03/30 04:24:57;;;;;;;22.88;4.03;;;;;;;8.60;100.00;92595.38;2531923;23;20061;-84
2023/03/30 04:26:00;;;;;;;17.55;3.80;;;;;;;8.58;100.00;92601.13;2518693;23;20046;-84
2023/03/30 04:27:02;;;;;;;18.80;3.60;;;;;;;8.71;100.00;92595.16;2519670;23;20448;-84
2023/03/30 04:28:03;;;;;;;14.38;3.53;;;;;;;8.75;100.00;92588.56;2519121;23;20002;-85
2023/03/30 04:29:05;;;;;;;18.38;4.10;;;;;;;8.63;100.00;92591.13;2531332;23;20013;-84
2023/03/30 04:30:07;;;;;;;20.73;3.92;;;;;;;8.68;100.00;92586.06;2507626;23;20065;-83
2023/03/30 04:31:09;;;;;;;12.90;3.67;;;;;;;8.67;100.00;92589.16;2519350;23;20057;-84
2023/03/30 04:32:12;;;;;;;19.58;3.42;;;;;;;8.71;100.00;92587.16;2507390;23;20029;-84
2023/03/30 04:33:13;;;;;;;13.07;3.70;;;;;;;8.63;100.00;92585.81;2508607;23;20017;-84
2023/03/30 04:34:20;;;;;;;15.73;3.55;;;;;;;8.68;100.00;92590.63;2519449;23;20493;-84
2023/03/30 04:35:21;;;;;;;18.70;4.22;;;;;;;8.68;100.00;92582.66;2509206;23;20070;-83
2023/03/30 04:36:22;;;;;;;11.30;3.20;;;;;;;8.57;100.00;92583.66;2507525;23;20035;-85
2023/03/30 04:37:29;;;;;;;14.57;3.70;;;;;;;8.70;100.00;92583.75;2495298;23;20295;-85
2023/03/30 04:38:30;;;;;;;14.55;4.38;;;;;;;8.90;100.00;92577.56;2509657;23;20339;-83
2023/03/30 04:39:31;;;;;;;13.80;4.60;;;;;;;8.83;100.00;92581.16;2507226;23;20520;-84
2023/03/30 04:40:32;;;;;;;23.88;8.57;;;;;;;8.77;100.00;92580.16;2495713;23;20007;-83
2023/03/30 04:41:34;;;;;;;20.98;7.90;;;;;;;8.73;100.00;92584.81;2496175;23;20443;-84
2023/03/30 04:42:37;;;;;;;18.52;6.65;;;;;;;8.68;100.00;92579.97;2519932;23;20017;-86
2023/03/30 04:43:38;;;;;;;17.58;6.78;;;;;;;8.81;100.00;92586.88;2519016;23;20037;-85
2023/03/30 04:44:39;;;;;;;22.30;4.88;;;;;;;8.76;100.00;92576.75;2507237;23;20007;-84
2023/03/30 04:45:41;;;;;;;13.80;3.80;;;;;;;8.67;100.00;92571.25;2507836;23;20017;-86
2023/03/30 04:46:41;;;;;;;13.90;3.60;;;;;;;8.69;100.00;92576.16;2496199;23;20033;-84
2023/03/30 04:47:44;;;;;;;14.77;3.78;;;;;;;8.63;100.00;92573.25;2507319;23;20009;-84
2023/03/30 04:48:45;;;;;;;18.02;4.00;;;;;;;8.58;100.00;92569.16;2518946;23;20089;-84
2023/03/30 04:49:46;;;;;;;21.27;3.58;;;;;;;8.51;100.00;92571.97;2518700;23;20069;-84
2023/03/30 04:50:49;;;;;;;14.27;3.25;;;;;;;8.62;100.00;92569.09;2507036;23;20049;-85
2023/03/30 04:51:51;;;;;;;17.83;4.03;;;;;;;8.53;100.00;92577.66;2494641;23;20090;-84
2023/03/30 04:52:52;;;;;;;17.92;3.22;;;;;;;8.51;100.00;92568.56;2512016;23;20045;-83
2023/03/30 04:53:54;;;;;;;20.63;3.35;;;;;;;8.46;100.00;92571.72;2512556;23;20006;-84
2023/03/30 04:54:55;;;;;;;13.57;3.30;;;;;;;8.56;100.00;92571.50;2501876;23;20034;-84
2023/03/30 04:55:56;;;;;;;14.35;4.25;;;;;;;8.52;100.00;92573.50;2503095;23;20089;-84
2023/03/30 04:56:57;;;;;;;12.77;3.22;;;;;;;8.46;100.00;92572.47;2514071;23;20397;-85
2023/03/30 04:57:58;;;;;;;14.25;3.38;;;;;;;8.44;100.00;92576.75;2488384;23;20403;-84
2023/03/30 04:58:59;;;;;;;9.98;3.40;;;;;;;8.44;100.00;92574.81;2490932;23;20411;-85
2023/03/30 05:00:00;;;;;;;18.73;3.53;;;;;;;8.36;100.00;92581.44;2492051;23;20014;-84
2023/03/30 05:01:02;;;;;;;15.80;3.53;;;;;;;8.32;100.00;92578.84;2502986;23;20477;-83
2023/03/30 05:02:03;;;;;;;20.73;3.35;;;;;;;8.41;100.00;92585.53;2502111;23;20073;-85
2023/03/30 05:03:04;;;;;;;12.85;4.32;;;;;;;8.40;100.00;92581.38;2502002;23;20062;-85
2023/03/30 05:04:06;;;;;;;14.70;3.95;;;;;;;8.41;100.00;92580.22;2503906;23;20011;-91
2023/03/30 05:05:07;;;;;;;15.45;3.13;;;;;;;8.43;100.00;92583.97;2494398;23;20035;-91
2023/03/30 05:06:08;;;;;;;18.10;4.20;;;;;;;8.43;100.00;92588.53;2506677;23;20018;-89
2023/03/30 05:07:09;;;;;;;15.40;4.05;;;;;;;8.47;100.00;92586.53;2530393;23;20026;-89
2023/03/30 05:08:10;;;;;;;13.75;3.65;;;;;;;8.37;100.00;92582.94;2519426;23;20057;-85
2023/03/30 05:09:12;;;;;;;14.00;3.30;;;;;;;8.34;100.00;92591.75;2504586;23;20017;-85
2023/03/30 05:10:13;;;;;;;12.40;3.15;;;;;;;8.48;100.00;92591.47;2515591;23;20010;-85
2023/03/30 05:11:16;;;;;;;12.93;3.00;;;;;;;8.36;100.00;92589.41;2515090;23;20010;-84
2023/03/30 05:12:17;;;;;;;14.68;3.63;;;;;;;8.38;100.00;92591.69;2504422;23;20014;-83